Weather History for Port Huron, MI

Change the Weather History Date:

Saturday, June 7, 2014

  Actual Average (KMTC) Record (KMTC)
Temperature  
Mean Temperature 62 °F -  
Max Temperature 80 °F 76 °F 93 °F (1999)
Min Temperature 44 °F 56 °F 42 °F (1949)
Degree Days  
Heating Degree Days 3    
Growing Degree Days 12 (Base 50)    
Moisture  
Dew Point 50 °F    
Average Humidity 68    
Maximum Humidity 100    
Minimum Humidity 32    
Precipitation  
Precipitation 0.00 in - - ()
Sea Level Pressure  
Sea Level Pressure 30.00 in    
Wind  
Wind Speed 2 mph (SSE)    
Max Wind Speed 16 mph    
Max Gust Speed 21 mph    
Visibility 9 miles    
Events Fog    
Averages and records for this station are not official NWS values.
T = Trace of Precipitation, MM = Missing Value Source: NWS Daily Summary

Daily Weather History Graph

Daily Weather History Graph

Search for Another Location

Airport:

Trip Planner

Search our weather history database for the weather conditions in past years. The results will help you decide how hot, cold, wet, or windy it might be!

Date:

Astronomy

Jun. 07, 2014 Rise Set
Actual Time 5:51 AM EDT 9:06 PM EDT
Civil Twilight 5:16 AM EDT 9:41 PM EDT
Nautical Twilight 4:31 AM EDT 10:26 PM EDT
Astronomical Twilight 3:37 AM EDT 11:21 PM EDT
Moon 3:15 PM EDT (6/7) 2:21 AM EDT (6/7)
Length of Visible Light 16h 24m
Length of Day
15h 14m
Waxing Gibbous, 67% of the Moon is Illuminated
Jun 7
Waxing Gibbous
Jun 13
Full
Jun 19
Last Quarter
Jun 27
New
Jul 5
First Quarter

Hourly Weather History & Observations

Time (EDT) Temp. Dew Point Humidity Pressure Visibility Wind Dir Wind Speed Gust Speed Precip Events Conditions
12:17 AM 48.2 °F 46.4 °F 93% 30.03 in 10.0 mi Calm Calm - N/A   Clear
12:37 AM 50.0 °F 46.4 °F 87% 30.04 in 10.0 mi Calm Calm - N/A   Clear
12:57 AM 50.0 °F 48.2 °F 94% 30.03 in 10.0 mi Calm Calm - N/A   Clear
1:17 AM 48.2 °F 46.4 °F 93% 30.03 in 10.0 mi Calm Calm - N/A   Clear
1:37 AM 48.2 °F 46.4 °F 93% 30.02 in 10.0 mi Calm Calm - N/A   Clear
1:57 AM 48.2 °F 46.4 °F 93% 30.02 in 10.0 mi Calm Calm - N/A   Clear
2:17 AM 48.2 °F 48.2 °F 100% 30.02 in 10.0 mi Calm Calm - N/A   Clear
2:37 AM 48.2 °F 46.4 °F 93% 30.02 in 10.0 mi Calm Calm - N/A   Clear
2:57 AM 46.4 °F 46.4 °F 100% 30.03 in 7.0 mi Calm Calm - N/A   Clear
3:17 AM 46.4 °F 46.4 °F 100% 30.03 in 7.0 mi Calm Calm - N/A   Clear
3:37 AM 46.4 °F 46.4 °F 100% 30.03 in 7.0 mi Calm Calm - N/A   Clear
3:57 AM 46.4 °F 44.6 °F 93% 30.03 in 2.0 mi Calm Calm - N/A   Clear
4:17 AM 46.4 °F 44.6 °F 93% 30.03 in 5.0 mi Calm Calm - N/A   Clear
4:37 AM 46.4 °F 46.4 °F 100% 30.03 in 1.5 mi Calm Calm - N/A   Mist
4:57 AM 44.6 °F 44.6 °F 100% 30.03 in 1.0 mi Calm Calm - N/A   Mist
5:17 AM 44.6 °F 44.6 °F 100% 30.02 in 3.0 mi Calm Calm - N/A   Clear
5:37 AM 44.6 °F 44.6 °F 100% 30.03 in 4.0 mi Calm Calm - N/A   Clear
5:57 AM 44.6 °F 44.6 °F 100% 30.03 in 0.5 mi Calm Calm - N/A Fog Fog
6:17 AM 44.6 °F 44.6 °F 100% 30.03 in 7.0 mi Calm Calm - N/A   Clear
6:37 AM 46.4 °F 46.4 °F 100% 30.03 in 10.0 mi Calm Calm - N/A   Clear
6:57 AM 48.2 °F 48.2 °F 100% 30.04 in 10.0 mi Calm Calm - N/A   Clear
7:17 AM 50.0 °F 50.0 °F 100% 30.06 in 10.0 mi Calm Calm - N/A   Clear
7:37 AM 51.8 °F 51.8 °F 100% 30.07 in 10.0 mi Calm Calm - N/A   Clear
7:57 AM 55.4 °F 55.4 °F 100% 30.09 in 10.0 mi Calm Calm - N/A   Clear
8:17 AM 59.0 °F 57.2 °F 94% 30.08 in 10.0 mi Calm Calm - N/A   Clear
8:37 AM 60.8 °F 57.2 °F 88% 30.08 in 10.0 mi Calm Calm - N/A   Clear
8:57 AM 64.4 °F 55.4 °F 73% 30.09 in 10.0 mi NW 3.5 mph - N/A   Clear
9:17 AM 66.2 °F 55.4 °F 68% 30.09 in 10.0 mi NW 3.5 mph - N/A   Clear
9:37 AM 69.8 °F 57.2 °F 64% 30.08 in 10.0 mi Calm Calm - N/A   Clear
9:57 AM 71.6 °F 55.4 °F 57% 30.07 in 10.0 mi Calm Calm - N/A   Clear
10:17 AM 73.4 °F 53.6 °F 50% 30.06 in 10.0 mi NNE 3.5 mph - N/A   Clear
10:37 AM 75.2 °F 50.0 °F 41% 30.05 in 10.0 mi Calm Calm - N/A   Clear
10:57 AM 75.2 °F 50.0 °F 41% 30.05 in 10.0 mi NNE 4.6 mph - N/A   Clear
11:17 AM 75.2 °F 50.0 °F 41% 30.04 in 10.0 mi ESE 4.6 mph - N/A   Clear
11:37 AM 77.0 °F 51.8 °F 41% 30.03 in 10.0 mi ENE 5.8 mph - N/A   Clear
11:57 AM 77.0 °F 51.8 °F 41% 30.02 in 10.0 mi East 8.1 mph - N/A   Clear
12:17 PM 78.8 °F 48.2 °F 34% 30.02 in 10.0 mi East 10.4 mph - N/A   Clear
12:37 PM 77.0 °F 48.2 °F 36% 30.02 in 10.0 mi East 8.1 mph - N/A   Clear
12:57 PM 78.8 °F 48.2 °F 34% 30.01 in 10.0 mi ESE 3.5 mph - N/A   Clear
1:17 PM 78.8 °F 48.2 °F 34% 30.01 in 10.0 mi SE 4.6 mph - N/A   Clear
1:37 PM 78.8 °F 50.0 °F 36% 30.01 in 10.0 mi SE 10.4 mph - N/A   Clear
1:57 PM 78.8 °F 48.2 °F 34% 30.01 in 10.0 mi South 6.9 mph - N/A   Clear
2:17 PM 80.6 °F 48.2 °F 32% 30.00 in 10.0 mi East 6.9 mph - N/A   Clear
2:37 PM 80.6 °F 48.2 °F 32% 29.99 in 10.0 mi SSE 3.5 mph - N/A   Clear
2:57 PM 80.6 °F 48.2 °F 32% 29.99 in 10.0 mi SE 8.1 mph - N/A   Clear
3:17 PM 80.6 °F 48.2 °F 32% 29.98 in 10.0 mi South 10.4 mph - N/A   Clear
3:37 PM 80.6 °F 50.0 °F 34% 29.97 in 10.0 mi South 16.1 mph 20.7 mph N/A   Clear
3:57 PM 78.8 °F 51.8 °F 39% 29.97 in 10.0 mi SSW 12.7 mph - N/A   Clear
4:17 PM 78.8 °F 51.8 °F 39% 29.97 in 10.0 mi North - - N/A   Clear
4:37 PM 78.8 °F 51.8 °F 39% 29.96 in 10.0 mi South 10.4 mph - N/A   Clear
4:57 PM 78.8 °F 51.8 °F 39% 29.96 in 10.0 mi South 9.2 mph - N/A   Clear
5:17 PM 78.8 °F 53.6 °F 42% 29.96 in 10.0 mi SSE 9.2 mph - N/A   Clear
5:37 PM 77.0 °F 51.8 °F 41% 29.96 in 10.0 mi South 6.9 mph - N/A   Clear
5:57 PM 77.0 °F 51.8 °F 41% 29.96 in 10.0 mi South 8.1 mph - N/A   Clear
6:17 PM 77.0 °F 51.8 °F 41% 29.95 in 10.0 mi SW 5.8 mph - N/A   Clear
6:37 PM 77.0 °F 50.0 °F 39% 29.95 in 10.0 mi SSW 8.1 mph - N/A   Clear
6:57 PM 77.0 °F 50.0 °F 39% 29.94 in 10.0 mi South 5.8 mph - N/A   Clear
7:17 PM 75.2 °F 50.0 °F 41% 29.94 in 10.0 mi South 4.6 mph - N/A   Clear
7:37 PM 73.4 °F 51.8 °F 47% 29.94 in 10.0 mi Calm Calm - N/A   Clear
7:57 PM 73.4 °F 51.8 °F 47% 29.94 in 10.0 mi Calm Calm - N/A   Clear
8:17 PM 71.6 °F 53.6 °F 53% 29.94 in 10.0 mi Calm Calm - N/A   Clear
8:37 PM 66.2 °F 51.8 °F 60% 29.94 in 10.0 mi Calm Calm - N/A   Clear
8:57 PM 62.6 °F 53.6 °F 72% 29.94 in 10.0 mi Calm Calm - N/A   Clear
9:17 PM 60.8 °F 51.8 °F 72% 29.94 in 10.0 mi Calm Calm - N/A   Clear
9:37 PM 59.0 °F 53.6 °F 82% 29.94 in 10.0 mi Calm Calm - N/A   Clear
9:57 PM 59.0 °F 53.6 °F 82% 29.93 in 10.0 mi Calm Calm - N/A   Clear
10:17 PM 57.2 °F 53.6 °F 88% 29.93 in 10.0 mi Calm Calm - N/A   Clear
10:37 PM 57.2 °F 53.6 °F 88% 29.93 in 10.0 mi Calm Calm - N/A   Clear
10:57 PM 57.2 °F 53.6 °F 88% 29.93 in 10.0 mi Calm Calm - N/A   Clear
11:17 PM 55.4 °F 51.8 °F 88% 29.93 in 10.0 mi Calm Calm - N/A   Clear
11:37 PM 53.6 °F 51.8 °F 94% 29.93 in 10.0 mi Calm Calm - N/A   Clear
11:57 PM 53.6 °F 51.8 °F 94% 29.92 in 10.0 mi Calm Calm - N/A   Clear